sensor_id;sensor_type;location;lat;lon;timestamp;pressure;altitude;pressure_sealevel;temperature;humidity
60019;BME280;45870;42.528;26.740;2022-12-20T00:00:26;101923.94;;;6.16;41.67
60019;BME280;45870;42.528;26.740;2022-12-20T00:02:52;101965.72;;;7.32;38.73
60019;BME280;45870;42.528;26.740;2022-12-20T00:05:18;101688.53;;;5.13;38.74
60019;BME280;45870;42.528;26.740;2022-12-20T00:07:43;101954.38;;;7.46;38.41
60019;BME280;45870;42.528;26.740;2022-12-20T00:10:10;101950.09;;;7.95;37.73
60019;BME280;45870;42.528;26.740;2022-12-20T00:12:36;101942.72;;;7.97;38.22
60019;BME280;45870;42.528;26.740;2022-12-20T00:15:02;101953.09;;;7.84;38.50
60019;BME280;45870;42.528;26.740;2022-12-20T00:17:29;101918.00;;;7.26;38.81
60019;BME280;45870;42.528;26.740;2022-12-20T00:19:54;101951.56;;;7.48;38.96
60019;BME280;45870;42.528;26.740;2022-12-20T00:22:20;101749.25;;;6.28;39.29
60019;BME280;45870;42.528;26.740;2022-12-20T00:24:48;101955.38;;;7.71;39.42
60019;BME280;45870;42.528;26.740;2022-12-20T00:27:15;101946.97;;;7.66;39.56
60019;BME280;45870;42.528;26.740;2022-12-20T00:29:40;101951.28;;;7.59;39.83
60019;BME280;45870;42.528;26.740;2022-12-20T00:32:06;101891.22;;;7.42;39.08
60019;BME280;45870;42.528;26.740;2022-12-20T00:34:32;101853.78;;;7.41;38.31
60019;BME280;45870;42.528;26.740;2022-12-20T00:36:57;101947.25;;;7.97;39.01
60019;BME280;45870;42.528;26.740;2022-12-20T00:39:23;101944.59;;;8.05;38.77
60019;BME280;45870;42.528;26.740;2022-12-20T00:41:49;101945.28;;;8.07;38.75
60019;BME280;45870;42.528;26.740;2022-12-20T00:44:14;101931.88;;;7.81;38.86
60019;BME280;45870;42.528;26.740;2022-12-20T00:46:40;101921.88;;;7.58;39.20
60019;BME280;45870;42.528;26.740;2022-12-20T00:49:06;101931.38;;;7.18;39.36
60019;BME280;45870;42.528;26.740;2022-12-20T00:51:32;101922.44;;;7.10;39.69
60019;BME280;45870;42.528;26.740;2022-12-20T00:53:58;101863.75;;;6.71;38.94
60019;BME280;45870;42.528;26.740;2022-12-20T00:56:24;101919.06;;;6.46;39.65
60019;BME280;45870;42.528;26.740;2022-12-20T00:58:49;101850.97;;;5.67;40.15
60019;BME280;45870;42.528;26.740;2022-12-20T01:01:19;101921.88;;;6.27;40.31
60019;BME280;45870;42.528;26.740;2022-12-20T01:03:45;101927.94;;;6.29;39.91
60019;BME280;45870;42.528;26.740;2022-12-20T01:06:11;101853.59;;;5.59;40.85
60019;BME280;45870;42.528;26.740;2022-12-20T01:08:37;101923.00;;;6.07;40.91
60019;BME280;45870;42.528;26.740;2022-12-20T01:11:07;101917.25;;;6.20;41.08
60019;BME280;45870;42.528;26.740;2022-12-20T01:13:35;101911.31;;;6.43;40.67
60019;BME280;45870;42.528;26.740;2022-12-20T01:16:07;101906.50;;;6.65;40.83
60019;BME280;45870;42.528;26.740;2022-12-20T01:18:34;101896.84;;;6.36;40.98
60019;BME280;45870;42.528;26.740;2022-12-20T01:21:07;101891.47;;;6.54;40.20
60019;BME280;45870;42.528;26.740;2022-12-20T01:23:34;101859.13;;;6.38;40.03
60019;BME280;45870;42.528;26.740;2022-12-20T01:26:01;101839.66;;;6.36;40.24
60019;BME280;45870;42.528;26.740;2022-12-20T01:28:29;101860.63;;;6.58;39.82
60019;BME280;45870;42.528;26.740;2022-12-20T01:30:55;101828.63;;;6.39;40.06
60019;BME280;45870;42.528;26.740;2022-12-20T01:33:21;101845.34;;;6.33;39.91
60019;BME280;45870;42.528;26.740;2022-12-20T01:36:00;100985.09;;;1.35;39.29
60019;BME280;45870;42.528;26.740;2022-12-20T01:38:27;101856.59;;;6.36;39.63
60019;BME280;45870;42.528;26.740;2022-12-20T01:40:54;101860.63;;;6.23;39.88
60019;BME280;45870;42.528;26.740;2022-12-20T01:43:20;101863.56;;;5.94;40.90
60019;BME280;45870;42.528;26.740;2022-12-20T01:45:46;101750.63;;;5.17;40.50
60019;BME280;45870;42.528;26.740;2022-12-20T01:48:20;101849.84;;;6.15;40.68
60019;BME280;45870;42.528;26.740;2022-12-20T01:50:48;101853.97;;;5.91;41.05
60019;BME280;45870;42.528;26.740;2022-12-20T01:53:16;101856.09;;;5.61;41.72
60019;BME280;45870;42.528;26.740;2022-12-20T01:55:43;101847.28;;;5.50;41.81
60019;BME280;45870;42.528;26.740;2022-12-20T01:58:13;101843.19;;;5.46;42.13
60019;BME280;45870;42.528;26.740;2022-12-20T02:00:40;101765.16;;;5.41;40.54
60019;BME280;45870;42.528;26.740;2022-12-20T02:03:09;101849.75;;;5.62;41.52
60019;BME280;45870;42.528;26.740;2022-12-20T02:05:40;101801.19;;;4.92;42.16
60019;BME280;45870;42.528;26.740;2022-12-20T02:08:08;101840.47;;;5.29;41.65
60019;BME280;45870;42.528;26.740;2022-12-20T02:10:54;101840.06;;;5.24;42.44
60019;BME280;45870;42.528;26.740;2022-12-20T02:13:49;101808.22;;;4.84;41.01
60019;BME280;45870;42.528;26.740;2022-12-20T02:16:25;101707.88;;;4.33;41.45
60019;BME280;45870;42.528;26.740;2022-12-20T02:19:00;101835.63;;;5.05;42.03
60019;BME280;45870;42.528;26.740;2022-12-20T02:21:42;101706.50;;;4.10;42.77
60019;BME280;45870;42.528;26.740;2022-12-20T02:30:07;101834.97;;;4.84;41.95
60019;BME280;45870;42.528;26.740;2022-12-20T02:32:47;101826.03;;;5.12;42.46
60019;BME280;45870;42.528;26.740;2022-12-20T02:35:20;101810.31;;;4.90;41.31
60019;BME280;45870;42.528;26.740;2022-12-20T02:37:48;101823.22;;;4.67;41.47
60019;BME280;45870;42.528;26.740;2022-12-20T02:40:17;101829.88;;;4.90;42.55
60019;BME280;45870;42.528;26.740;2022-12-20T02:42:44;101830.28;;;5.05;41.64
60019;BME280;45870;42.528;26.740;2022-12-20T02:45:11;101788.06;;;4.89;41.74
60019;BME280;45870;42.528;26.740;2022-12-20T02:47:52;101820.78;;;5.20;41.13
60019;BME280;45870;42.528;26.740;2022-12-20T02:50:24;101801.66;;;4.78;42.15
60019;BME280;45870;42.528;26.740;2022-12-20T02:52:52;101813.44;;;4.85;41.58
60019;BME280;45870;42.528;26.740;2022-12-20T02:55:19;101816.69;;;4.79;41.52
60019;BME280;45870;42.528;26.740;2022-12-20T02:57:52;101809.28;;;5.00;41.43
60019;BME280;45870;42.528;26.740;2022-12-20T03:00:21;101798.06;;;5.24;41.52
60019;BME280;45870;42.528;26.740;2022-12-20T03:02:49;101813.19;;;5.43;41.81
60019;BME280;45870;42.528;26.740;2022-12-20T03:05:45;101811.91;;;5.47;41.78
60019;BME280;45870;42.528;26.740;2022-12-20T03:08:12;101577.03;;;4.59;40.72
60019;BME280;45870;42.528;26.740;2022-12-20T03:10:38;101802.28;;;6.17;40.82
60019;BME280;45870;42.528;26.740;2022-12-20T03:13:06;101808.84;;;6.40;41.46
60019;BME280;45870;42.528;26.740;2022-12-20T03:15:32;101792.91;;;6.38;41.04
60019;BME280;45870;42.528;26.740;2022-12-20T03:17:58;101798.03;;;6.49;41.04
60019;BME280;45870;42.528;26.740;2022-12-20T03:20:24;101790.53;;;6.35;41.33
60019;BME280;45870;42.528;26.740;2022-12-20T03:22:49;101797.63;;;6.44;41.53
60019;BME280;45870;42.528;26.740;2022-12-20T03:25:17;101803.50;;;6.40;40.93
60019;BME280;45870;42.528;26.740;2022-12-20T03:27:42;101792.25;;;6.01;40.94
60019;BME280;45870;42.528;26.740;2022-12-20T03:30:08;101796.91;;;6.17;41.33
60019;BME280;45870;42.528;26.740;2022-12-20T03:32:34;101792.75;;;6.40;40.98
60019;BME280;45870;42.528;26.740;2022-12-20T03:35:00;101581.16;;;5.34;40.66
60019;BME280;45870;42.528;26.740;2022-12-20T03:37:25;101761.66;;;6.55;40.30
60019;BME280;45870;42.528;26.740;2022-12-20T03:39:51;101734.16;;;6.27;40.19
60019;BME280;45870;42.528;26.740;2022-12-20T03:42:17;101721.78;;;6.09;39.78
60019;BME280;45870;42.528;26.740;2022-12-20T03:44:43;101744.06;;;6.09;39.23
60019;BME280;45870;42.528;26.740;2022-12-20T03:47:08;101677.38;;;5.35;39.85
60019;BME280;45870;42.528;26.740;2022-12-20T03:49:35;101779.28;;;5.79;40.53
60019;BME280;45870;42.528;26.740;2022-12-20T03:52:00;101786.88;;;6.19;39.66
60019;BME280;45870;42.528;26.740;2022-12-20T03:54:26;101781.38;;;6.02;39.32
60019;BME280;45870;42.528;26.740;2022-12-20T03:56:52;101793.25;;;6.00;39.38
60019;BME280;45870;42.528;26.740;2022-12-20T03:59:17;101793.34;;;5.90;39.84
60019;BME280;45870;42.528;26.740;2022-12-20T04:01:43;101782.91;;;5.60;39.55
60019;BME280;45870;42.528;26.740;2022-12-20T04:04:11;101795.09;;;5.54;40.75
60019;BME280;45870;42.528;26.740;2022-12-20T04:06:37;101720.25;;;4.81;40.87
60019;BME280;45870;42.528;26.740;2022-12-20T04:09:03;101783.19;;;5.39;41.03
60019;BME280;45870;42.528;26.740;2022-12-20T04:11:29;101787.34;;;5.24;40.93
60019;BME280;45870;42.528;26.740;2022-12-20T04:13:55;101781.72;;;5.27;40.52
60019;BME280;45870;42.528;26.740;2022-12-20T04:16:23;101713.00;;;4.91;41.01
60019;BME280;45870;42.528;26.740;2022-12-20T04:18:51;101668.78;;;4.32;40.80
60019;BME280;45870;42.528;26.740;2022-12-20T04:21:26;101765.06;;;5.06;40.34
60019;BME280;45870;42.528;26.740;2022-12-20T04:23:52;101787.69;;;5.12;41.01
60019;BME280;45870;42.528;26.740;2022-12-20T04:26:18;101792.69;;;5.24;40.69
60019;BME280;45870;42.528;26.740;2022-12-20T04:28:44;101792.44;;;5.27;40.26
60019;BME280;45870;42.528;26.740;2022-12-20T04:31:10;101781.78;;;5.35;39.72
60019;BME280;45870;42.528;26.740;2022-12-20T04:33:37;101714.59;;;5.11;39.97
60019;BME280;45870;42.528;26.740;2022-12-20T04:36:03;101749.84;;;5.07;40.24
60019;BME280;45870;42.528;26.740;2022-12-20T04:38:29;101803.56;;;5.23;40.48
60019;BME280;45870;42.528;26.740;2022-12-20T04:40:55;101801.09;;;5.12;40.69
60019;BME280;45870;42.528;26.740;2022-12-20T04:43:22;101800.16;;;5.03;40.90
60019;BME280;45870;42.528;26.740;2022-12-20T04:45:50;101787.56;;;5.13;39.81
60019;BME280;45870;42.528;26.740;2022-12-20T04:48:18;101801.19;;;4.83;40.33
60019;BME280;45870;42.528;26.740;2022-12-20T04:50:48;101791.50;;;4.72;40.48
60019;BME280;45870;42.528;26.740;2022-12-20T04:53:14;101790.31;;;4.38;41.33
60019;BME280;45870;42.528;26.740;2022-12-20T04:55:59;101792.09;;;4.66;41.36
60019;BME280;45870;42.528;26.740;2022-12-20T04:58:25;101759.59;;;4.51;41.19
60019;BME280;45870;42.528;26.740;2022-12-20T05:00:51;101797.75;;;4.44;41.04
60019;BME280;45870;42.528;26.740;2022-12-20T05:03:18;101802.72;;;4.00;42.00
60019;BME280;45870;42.528;26.740;2022-12-20T05:05:44;101772.03;;;4.24;42.06
60019;BME280;45870;42.528;26.740;2022-12-20T05:08:13;101801.91;;;4.75;41.05
60019;BME280;45870;42.528;26.740;2022-12-20T05:10:39;101793.16;;;4.83;41.00
60019;BME280;45870;42.528;26.740;2022-12-20T05:13:05;101795.88;;;4.73;40.94
60019;BME280;45870;42.528;26.740;2022-12-20T05:15:31;101722.59;;;4.47;40.13
60019;BME280;45870;42.528;26.740;2022-12-20T05:17:57;101790.63;;;4.25;41.17
60019;BME280;45870;42.528;26.740;2022-12-20T05:20:28;101789.59;;;4.45;41.65
60019;BME280;45870;42.528;26.740;2022-12-20T05:22:55;101755.63;;;4.65;40.52
60019;BME280;45870;42.528;26.740;2022-12-20T05:25:47;101714.53;;;4.66;40.12
60019;BME280;45870;42.528;26.740;2022-12-20T05:28:32;101777.66;;;4.86;40.57
60019;BME280;45870;42.528;26.740;2022-12-20T05:30:59;101773.69;;;4.90;40.46
60019;BME280;45870;42.528;26.740;2022-12-20T05:33:25;101701.38;;;4.45;40.03
60019;BME280;45870;42.528;26.740;2022-12-20T05:35:51;101774.28;;;4.09;41.83
60019;BME280;45870;42.528;26.740;2022-12-20T05:38:17;101751.16;;;4.56;40.90
60019;BME280;45870;42.528;26.740;2022-12-20T05:40:43;101742.50;;;4.25;40.99
60019;BME280;45870;42.528;26.740;2022-12-20T05:43:12;101764.38;;;4.67;41.32
60019;BME280;45870;42.528;26.740;2022-12-20T05:45:38;101767.91;;;4.95;40.35
60019;BME280;45870;42.528;26.740;2022-12-20T05:48:04;101560.63;;;3.80;40.71
60019;BME280;45870;42.528;26.740;2022-12-20T05:50:29;101758.88;;;4.59;41.39
60019;BME280;45870;42.528;26.740;2022-12-20T05:52:55;101777.78;;;4.94;41.66
60019;BME280;45870;42.528;26.740;2022-12-20T05:55:21;101712.28;;;4.62;40.13
60019;BME280;45870;42.528;26.740;2022-12-20T05:57:47;101777.72;;;5.14;40.32
60019;BME280;45870;42.528;26.740;2022-12-20T06:00:13;101784.28;;;5.19;40.33
60019;BME280;45870;42.528;26.740;2022-12-20T06:02:39;101786.97;;;5.19;40.89
60019;BME280;45870;42.528;26.740;2022-12-20T06:05:05;101793.47;;;5.17;40.54
60019;BME280;45870;42.528;26.740;2022-12-20T06:07:31;101792.59;;;4.89;42.30
60019;BME280;45870;42.528;26.740;2022-12-20T06:09:57;101797.28;;;5.41;40.92
60019;BME280;45870;42.528;26.740;2022-12-20T06:12:23;101792.47;;;6.08;40.47
60019;BME280;45870;42.528;26.740;2022-12-20T06:14:49;101754.50;;;6.12;39.42
60019;BME280;45870;42.528;26.740;2022-12-20T06:17:15;101791.50;;;6.52;39.28
60019;BME280;45870;42.528;26.740;2022-12-20T06:19:41;101744.50;;;6.99;38.61
60019;BME280;45870;42.528;26.740;2022-12-20T06:22:08;101755.84;;;7.35;38.91
60019;BME280;45870;42.528;26.740;2022-12-20T06:24:35;101705.06;;;7.82;36.56
60019;BME280;45870;42.528;26.740;2022-12-20T06:27:01;101781.25;;;8.39;36.90
60019;BME280;45870;42.528;26.740;2022-12-20T06:29:28;101756.59;;;8.91;35.77
60019;BME280;45870;42.528;26.740;2022-12-20T06:31:54;101777.69;;;9.88;35.54
60019;BME280;45870;42.528;26.740;2022-12-20T06:34:20;101727.50;;;10.24;33.71
60019;BME280;45870;42.528;26.740;2022-12-20T06:36:46;101677.38;;;10.30;32.97
60019;BME280;45870;42.528;26.740;2022-12-20T06:39:12;101798.22;;;11.38;31.14
60019;BME280;45870;42.528;26.740;2022-12-20T06:41:39;101782.28;;;10.99;32.92
60019;BME280;45870;42.528;26.740;2022-12-20T06:44:05;101789.41;;;11.51;31.77
60019;BME280;45870;42.528;26.740;2022-12-20T06:46:31;101801.59;;;11.26;32.51
60019;BME280;45870;42.528;26.740;2022-12-20T06:48:57;101703.19;;;10.47;32.35
60019;BME280;45870;42.528;26.740;2022-12-20T06:51:23;101792.13;;;11.51;31.65
60019;BME280;45870;42.528;26.740;2022-12-20T06:53:48;101800.78;;;10.59;32.23
60019;BME280;45870;42.528;26.740;2022-12-20T06:56:14;101713.44;;;9.46;32.93
60019;BME280;45870;42.528;26.740;2022-12-20T06:58:41;101737.13;;;9.20;33.71
60019;BME280;45870;42.528;26.740;2022-12-20T07:01:07;101747.88;;;8.73;35.15
60019;BME280;45870;42.528;26.740;2022-12-20T07:03:33;101788.63;;;8.70;35.85
60019;BME280;45870;42.528;26.740;2022-12-20T07:05:59;101780.03;;;8.74;35.94
60019;BME280;45870;42.528;26.740;2022-12-20T07:08:26;101785.19;;;9.00;35.64
60019;BME280;45870;42.528;26.740;2022-12-20T07:10:52;101635.50;;;7.95;36.39
60019;BME280;45870;42.528;26.740;2022-12-20T07:13:19;101735.25;;;8.81;35.85
60019;BME280;45870;42.528;26.740;2022-12-20T07:15:45;101766.78;;;9.12;35.67
60019;BME280;45870;42.528;26.740;2022-12-20T07:18:11;101781.19;;;9.66;35.36
60019;BME280;45870;42.528;26.740;2022-12-20T07:20:38;101769.03;;;9.92;35.11
60019;BME280;45870;42.528;26.740;2022-12-20T07:23:04;101766.50;;;9.68;36.38
60019;BME280;45870;42.528;26.740;2022-12-20T07:25:30;101772.38;;;9.72;35.77
60019;BME280;45870;42.528;26.740;2022-12-20T07:27:56;101781.78;;;10.29;34.02
60019;BME280;45870;42.528;26.740;2022-12-20T07:30:22;101772.91;;;10.21;34.52
60019;BME280;45870;42.528;26.740;2022-12-20T07:32:48;101607.81;;;9.42;34.39
60019;BME280;45870;42.528;26.740;2022-12-20T07:35:14;101783.78;;;10.73;34.21
60019;BME280;45870;42.528;26.740;2022-12-20T07:37:40;101621.53;;;10.30;34.36
60019;BME280;45870;42.528;26.740;2022-12-20T07:40:07;101721.06;;;9.57;34.97
60019;BME280;45870;42.528;26.740;2022-12-20T07:42:33;101773.63;;;9.61;36.33
60019;BME280;45870;42.528;26.740;2022-12-20T07:44:59;101760.97;;;9.92;36.12
60019;BME280;45870;42.528;26.740;2022-12-20T07:47:25;101775.38;;;9.85;36.29
60019;BME280;45870;42.528;26.740;2022-12-20T07:49:50;101775.75;;;10.65;35.30
60019;BME280;45870;42.528;26.740;2022-12-20T07:52:19;101780.13;;;10.66;34.94
60019;BME280;45870;42.528;26.740;2022-12-20T07:54:50;101742.66;;;10.48;35.39
60019;BME280;45870;42.528;26.740;2022-12-20T07:57:31;101764.13;;;11.59;33.11
60019;BME280;45870;42.528;26.740;2022-12-20T08:00:01;101744.59;;;11.92;32.70
60019;BME280;45870;42.528;26.740;2022-12-20T08:02:41;101765.00;;;11.95;32.71
60019;BME280;45870;42.528;26.740;2022-12-20T08:05:10;101671.75;;;11.19;32.61
60019;BME280;45870;42.528;26.740;2022-12-20T08:07:38;101758.03;;;12.07;32.14
60019;BME280;45870;42.528;26.740;2022-12-20T08:10:06;101692.94;;;12.15;32.38
60019;BME280;45870;42.528;26.740;2022-12-20T08:12:33;101718.84;;;12.52;32.16
60019;BME280;45870;42.528;26.740;2022-12-20T08:14:59;101737.00;;;12.30;32.26
60019;BME280;45870;42.528;26.740;2022-12-20T08:17:25;101723.56;;;11.94;32.91
60019;BME280;45870;42.528;26.740;2022-12-20T08:19:51;101748.69;;;12.59;32.97
60019;BME280;45870;42.528;26.740;2022-12-20T08:22:17;101759.47;;;12.52;32.38
60019;BME280;45870;42.528;26.740;2022-12-20T08:24:44;101763.16;;;12.72;32.11
60019;BME280;45870;42.528;26.740;2022-12-20T08:27:10;101746.03;;;12.99;31.46
60019;BME280;45870;42.528;26.740;2022-12-20T08:29:35;101742.47;;;12.99;31.83
60019;BME280;45870;42.528;26.740;2022-12-20T08:32:01;101748.34;;;13.02;31.23
60019;BME280;45870;42.528;26.740;2022-12-20T08:34:27;101734.78;;;13.02;32.05
60019;BME280;45870;42.528;26.740;2022-12-20T08:36:53;101685.09;;;12.55;32.27
60019;BME280;45870;42.528;26.740;2022-12-20T08:39:19;101736.75;;;13.69;31.20
60019;BME280;45870;42.528;26.740;2022-12-20T08:41:45;101729.63;;;11.61;33.89
60019;BME280;45870;42.528;26.740;2022-12-20T08:44:10;101659.00;;;12.47;32.50
60019;BME280;45870;42.528;26.740;2022-12-20T08:46:36;101725.47;;;12.22;33.35
60019;BME280;45870;42.528;26.740;2022-12-20T08:49:03;101633.41;;;11.51;33.38
60019;BME280;45870;42.528;26.740;2022-12-20T08:51:29;101705.75;;;12.90;33.14
60019;BME280;45870;42.528;26.740;2022-12-20T08:53:55;101703.81;;;12.49;33.06
60019;BME280;45870;42.528;26.740;2022-12-20T08:56:21;101672.31;;;13.17;31.63
60019;BME280;45870;42.528;26.740;2022-12-20T08:58:47;101712.56;;;13.68;30.91
60019;BME280;45870;42.528;26.740;2022-12-20T09:01:15;101723.69;;;14.06;30.79
60019;BME280;45870;42.528;26.740;2022-12-20T09:03:42;101578.78;;;10.99;33.58
60019;BME280;45870;42.528;26.740;2022-12-20T09:06:12;101692.69;;;12.66;32.06
60019;BME280;45870;42.528;26.740;2022-12-20T09:08:39;101700.50;;;14.03;30.22
60019;BME280;45870;42.528;26.740;2022-12-20T09:11:07;101693.13;;;13.71;30.75
60019;BME280;45870;42.528;26.740;2022-12-20T09:13:34;101683.56;;;13.94;30.41
60019;BME280;45870;42.528;26.740;2022-12-20T09:16:03;101685.03;;;14.10;29.66
60019;BME280;45870;42.528;26.740;2022-12-20T09:18:29;101673.34;;;11.49;34.35
60019;BME280;45870;42.528;26.740;2022-12-20T09:20:59;101668.00;;;12.54;32.78
60019;BME280;45870;42.528;26.740;2022-12-20T09:23:26;101651.50;;;10.50;35.47
60019;BME280;45870;42.528;26.740;2022-12-20T09:25:51;101670.03;;;12.73;34.04
60019;BME280;45870;42.528;26.740;2022-12-20T09:28:17;101673.59;;;10.83;36.87
60019;BME280;45870;42.528;26.740;2022-12-20T09:30:44;101653.31;;;11.65;35.25
60019;BME280;45870;42.528;26.740;2022-12-20T09:33:11;101632.91;;;10.40;36.55
60019;BME280;45870;42.528;26.740;2022-12-20T09:35:46;101663.94;;;11.10;35.58
60019;BME280;45870;42.528;26.740;2022-12-20T09:38:12;101653.66;;;10.69;37.72
60019;BME280;45870;42.528;26.740;2022-12-20T09:40:43;101649.88;;;9.89;38.33
60019;BME280;45870;42.528;26.740;2022-12-20T09:43:15;101566.91;;;8.08;40.23
60019;BME280;45870;42.528;26.740;2022-12-20T09:45:42;101619.94;;;8.93;40.01
60019;BME280;45870;42.528;26.740;2022-12-20T09:48:18;101652.97;;;9.40;40.94
60019;BME280;45870;42.528;26.740;2022-12-20T09:50:47;101646.53;;;9.87;39.61
60019;BME280;45870;42.528;26.740;2022-12-20T09:56:25;101618.53;;;11.41;36.65
60019;BME280;45870;42.528;26.740;2022-12-20T09:59:03;101630.03;;;11.43;36.64
60019;BME280;45870;42.528;26.740;2022-12-20T10:01:31;101623.38;;;13.45;33.04
60019;BME280;45870;42.528;26.740;2022-12-20T10:04:00;101621.84;;;9.98;38.13
60019;BME280;45870;42.528;26.740;2022-12-20T10:09:08;101603.00;;;12.54;34.22
60019;BME280;45870;42.528;26.740;2022-12-20T10:11:53;101565.19;;;10.57;37.50
60019;BME280;45870;42.528;26.740;2022-12-20T10:14:34;101595.59;;;11.16;37.27
60019;BME280;45870;42.528;26.740;2022-12-20T10:19:57;101590.53;;;11.91;34.42
60019;BME280;45870;42.528;26.740;2022-12-20T10:22:32;101523.84;;;11.34;36.36
60019;BME280;45870;42.528;26.740;2022-12-20T10:25:19;101516.69;;;14.04;31.60
60019;BME280;45870;42.528;26.740;2022-12-20T10:27:45;101588.34;;;13.89;32.63
60019;BME280;45870;42.528;26.740;2022-12-20T10:30:18;101578.69;;;13.15;33.51
60019;BME280;45870;42.528;26.740;2022-12-20T10:32:48;101575.69;;;13.03;34.39
60019;BME280;45870;42.528;26.740;2022-12-20T10:38:01;101568.47;;;12.63;34.10
60019;BME280;45870;42.528;26.740;2022-12-20T10:40:35;101526.59;;;10.77;37.91
60019;BME280;45870;42.528;26.740;2022-12-20T10:43:02;101565.78;;;10.37;39.38
60019;BME280;45870;42.528;26.740;2022-12-20T10:45:36;101472.88;;;12.95;33.38
60019;BME280;45870;42.528;26.740;2022-12-20T10:48:06;101557.72;;;14.60;31.52
60019;BME280;45870;42.528;26.740;2022-12-20T10:51:03;101557.22;;;14.76;31.88
60019;BME280;45870;42.528;26.740;2022-12-20T10:53:32;101554.91;;;15.98;29.77
60019;BME280;45870;42.528;26.740;2022-12-20T10:56:26;101551.38;;;15.73;31.05
60019;BME280;45870;42.528;26.740;2022-12-20T11:01:43;101539.16;;;11.48;38.35
60019;BME280;45870;42.528;26.740;2022-12-20T11:06:54;101503.66;;;12.68;35.04
60019;BME280;45870;42.528;26.740;2022-12-20T11:14:26;101507.25;;;12.21;36.23
60019;BME280;45870;42.528;26.740;2022-12-20T11:16:54;101500.44;;;13.77;33.20
60019;BME280;45870;42.528;26.740;2022-12-20T11:19:33;101495.91;;;12.51;35.39
60019;BME280;45870;42.528;26.740;2022-12-20T11:22:17;101494.63;;;13.61;33.74
60019;BME280;45870;42.528;26.740;2022-12-20T11:27:42;101471.84;;;11.81;37.20
60019;BME280;45870;42.528;26.740;2022-12-20T11:30:24;101441.19;;;12.95;34.75
60019;BME280;45870;42.528;26.740;2022-12-20T11:36:02;101386.03;;;13.80;32.53
60019;BME280;45870;42.528;26.740;2022-12-20T11:43:44;101460.94;;;14.01;33.20
60019;BME280;45870;42.528;26.740;2022-12-20T11:46:35;101451.34;;;13.98;33.54
60019;BME280;45870;42.528;26.740;2022-12-20T11:49:28;101371.75;;;12.81;34.84
60019;BME280;45870;42.528;26.740;2022-12-20T11:52:49;101446.31;;;12.44;36.09
60019;BME280;45870;42.528;26.740;2022-12-20T12:05:36;101428.28;;;13.30;34.66
60019;BME280;45870;42.528;26.740;2022-12-20T12:08:11;101433.28;;;14.68;33.40
60019;BME280;45870;42.528;26.740;2022-12-20T12:10:43;101414.22;;;13.79;33.71
60019;BME280;45870;42.528;26.740;2022-12-20T12:13:20;101415.38;;;14.10;33.66
60019;BME280;45870;42.528;26.740;2022-12-20T12:18:27;101408.81;;;15.67;30.84
60019;BME280;45870;42.528;26.740;2022-12-20T12:21:22;101413.66;;;14.15;33.35
60019;BME280;45870;42.528;26.740;2022-12-20T12:24:03;101408.03;;;14.17;33.86
60019;BME280;45870;42.528;26.740;2022-12-20T12:26:33;101409.31;;;13.24;35.88
60019;BME280;45870;42.528;26.740;2022-12-20T12:29:02;101413.16;;;13.87;34.48
60019;BME280;45870;42.528;26.740;2022-12-20T12:31:42;101419.06;;;12.79;36.17
60019;BME280;45870;42.528;26.740;2022-12-20T12:37:04;101413.00;;;13.75;35.04
60019;BME280;45870;42.528;26.740;2022-12-20T12:44:54;101415.31;;;13.59;35.60
60019;BME280;45870;42.528;26.740;2022-12-20T12:47:44;101410.13;;;13.50;35.19
60019;BME280;45870;42.528;26.740;2022-12-20T12:50:31;101405.06;;;13.74;35.51
60019;BME280;45870;42.528;26.740;2022-12-20T12:53:16;101399.50;;;14.13;34.34
60019;BME280;45870;42.528;26.740;2022-12-20T12:55:46;101277.25;;;14.20;32.56
60019;BME280;45870;42.528;26.740;2022-12-20T12:58:30;101409.06;;;16.50;30.51
60019;BME280;45870;42.528;26.740;2022-12-20T13:00:59;101260.88;;;14.01;33.58
60019;BME280;45870;42.528;26.740;2022-12-20T13:03:35;101380.25;;;14.15;33.98
60019;BME280;45870;42.528;26.740;2022-12-20T13:11:40;101326.13;;;13.11;35.66
60019;BME280;45870;42.528;26.740;2022-12-20T13:16:51;101377.16;;;13.54;35.07
60019;BME280;45870;42.528;26.740;2022-12-20T13:21:55;101380.47;;;12.57;37.05
60019;BME280;45870;42.528;26.740;2022-12-20T13:24:51;101375.50;;;12.67;35.88
60019;BME280;45870;42.528;26.740;2022-12-20T13:27:31;101216.75;;;12.27;35.70
60019;BME280;45870;42.528;26.740;2022-12-20T13:40:56;101369.69;;;14.00;35.10
60019;BME280;45870;42.528;26.740;2022-12-20T13:45:50;101279.53;;;13.40;34.39
60019;BME280;45870;42.528;26.740;2022-12-20T13:48:24;101365.22;;;13.68;34.91
60019;BME280;45870;42.528;26.740;2022-12-20T13:50:53;101365.59;;;14.91;33.40
60019;BME280;45870;42.528;26.740;2022-12-20T13:53:22;101367.44;;;14.35;34.55
60019;BME280;45870;42.528;26.740;2022-12-20T13:55:48;101360.94;;;14.67;34.14
60019;BME280;45870;42.528;26.740;2022-12-20T13:58:19;101286.56;;;13.61;35.53
60019;BME280;45870;42.528;26.740;2022-12-20T14:00:47;101170.44;;;13.38;34.50
60019;BME280;45870;42.528;26.740;2022-12-20T14:03:22;101321.44;;;14.65;33.81
60019;BME280;45870;42.528;26.740;2022-12-20T14:05:55;101352.16;;;15.39;32.88
60019;BME280;45870;42.528;26.740;2022-12-20T14:08:25;101350.22;;;15.65;32.71
60019;BME280;45870;42.528;26.740;2022-12-20T14:10:52;101340.44;;;15.39;32.92
60019;BME280;45870;42.528;26.740;2022-12-20T14:13:26;101342.16;;;15.15;33.34
60019;BME280;45870;42.528;26.740;2022-12-20T14:15:52;101308.06;;;14.70;33.70
60019;BME280;45870;42.528;26.740;2022-12-20T14:18:22;101334.59;;;15.35;33.66
60019;BME280;45870;42.528;26.740;2022-12-20T14:21:08;101332.19;;;15.45;32.79